createdAt,value
2022-11-19T00:02:28.224Z,3.52
2022-11-19T00:05:19.814Z,4.05
2022-11-19T00:08:11.771Z,3.65
2022-11-19T00:11:09.848Z,3.62
2022-11-19T00:16:52.855Z,3.72
2022-11-19T00:19:44.280Z,3.98
2022-11-19T00:22:35.750Z,4.15
2022-11-19T00:25:29.971Z,3.98
2022-11-19T00:28:21.740Z,4.08
2022-11-19T00:31:18.214Z,4.17
2022-11-19T00:34:09.572Z,4.10
2022-11-19T00:37:00.692Z,4.15
2022-11-19T00:39:51.714Z,3.67
2022-11-19T00:42:44.679Z,4.20
2022-11-19T00:45:35.767Z,4.15
2022-11-19T00:48:26.965Z,4.30
2022-11-19T00:51:19.696Z,4.55
2022-11-19T00:54:10.892Z,4.70
2022-11-19T00:57:02.244Z,4.12
2022-11-19T00:59:53.633Z,4.40
2022-11-19T01:02:45.759Z,4.25
2022-11-19T01:05:36.810Z,4.03
2022-11-19T01:08:28.457Z,4.42
2022-11-19T01:11:21.450Z,4.00
2022-11-19T01:14:12.989Z,3.58
2022-11-19T01:17:04.383Z,4.10
2022-11-19T01:19:56.205Z,4.20
2022-11-19T01:22:47.501Z,3.55
2022-11-19T01:25:39.247Z,3.83
2022-11-19T01:28:31.235Z,3.83
2022-11-19T01:31:24.967Z,3.60
2022-11-19T01:34:16.165Z,3.45
2022-11-19T01:37:07.451Z,3.55
2022-11-19T01:39:58.712Z,3.35
2022-11-19T01:42:54.435Z,3.30
2022-11-19T01:45:49.071Z,3.55
2022-11-19T01:48:43.127Z,3.02
2022-11-19T01:51:39.685Z,3.42
2022-11-19T01:54:34.091Z,3.60
2022-11-19T01:57:25.833Z,3.75
2022-11-19T02:00:19.058Z,3.30
2022-11-19T02:03:11.482Z,3.50
2022-11-19T02:06:04.062Z,3.52
2022-11-19T02:08:55.386Z,3.87
2022-11-19T02:12:02.772Z,3.30
2022-11-19T02:18:36.140Z,3.62
2022-11-19T02:21:34.682Z,3.75
2022-11-19T02:24:36.390Z,4.25
2022-11-19T02:28:01.832Z,3.87
2022-11-19T02:30:56.508Z,4.03
2022-11-19T02:33:50.971Z,3.83
2022-11-19T02:36:45.303Z,4.33
2022-11-19T02:39:40.958Z,4.45
2022-11-19T02:42:35.969Z,4.00
2022-11-19T02:45:30.847Z,4.25
2022-11-19T02:48:26.788Z,3.65
2022-11-19T02:51:19.907Z,3.83
2022-11-19T02:54:11.876Z,4.05
2022-11-19T02:57:03.148Z,4.20
2022-11-19T03:00:15.188Z,4.17
2022-11-19T03:03:26.771Z,3.70
2022-11-19T03:06:21.143Z,4.20
2022-11-19T03:09:13.049Z,3.90
2022-11-19T03:12:10.735Z,4.12
2022-11-19T03:15:22.753Z,3.80
2022-11-19T03:18:18.160Z,3.12
2022-11-19T03:23:55.402Z,3.05
2022-11-19T03:26:50.492Z,2.60
2022-11-19T03:32:27.382Z,2.40
2022-11-19T03:35:21.864Z,2.27
2022-11-19T03:38:16.263Z,2.50
2022-11-19T03:41:10.301Z,2.50
2022-11-19T03:44:05.034Z,2.20
2022-11-19T03:46:59.778Z,2.08
2022-11-19T03:49:54.437Z,2.00
2022-11-19T03:52:46.358Z,2.02
2022-11-19T03:55:40.825Z,2.27
2022-11-19T03:58:39.381Z,2.40
2022-11-19T04:01:31.333Z,2.10
2022-11-19T04:04:38.331Z,1.80
2022-11-19T04:07:29.631Z,1.80
2022-11-19T04:10:21.071Z,2.00
2022-11-19T04:13:12.624Z,1.80
2022-11-19T04:16:04.125Z,1.77
2022-11-19T04:18:55.287Z,1.98
2022-11-19T04:21:47.010Z,2.05
2022-11-19T04:24:38.193Z,2.12
2022-11-19T04:27:29.730Z,2.33
2022-11-19T04:30:21.524Z,2.05
2022-11-19T04:33:12.965Z,2.27
2022-11-19T04:36:04.493Z,2.10
2022-11-19T04:38:55.923Z,1.98
2022-11-19T04:41:47.430Z,1.77
2022-11-19T04:44:38.955Z,2.30
2022-11-19T04:47:30.316Z,2.35
2022-11-19T04:50:22.012Z,2.30
2022-11-19T04:53:13.336Z,2.42
2022-11-19T04:56:05.036Z,2.70
2022-11-19T04:58:56.317Z,2.00
2022-11-19T05:01:49.441Z,2.15
2022-11-19T05:04:40.724Z,2.02
2022-11-19T05:07:32.175Z,2.00
2022-11-19T05:10:23.687Z,2.20
2022-11-19T05:13:15.332Z,1.90
2022-11-19T05:16:07.371Z,2.00
2022-11-19T05:18:58.936Z,2.10
2022-11-19T05:21:49.912Z,2.58
2022-11-19T05:24:41.224Z,2.20
2022-11-19T05:27:32.747Z,2.10
2022-11-19T05:30:24.228Z,2.20
2022-11-19T05:33:15.837Z,2.10
2022-11-19T05:36:08.892Z,2.25
2022-11-19T05:39:00.416Z,2.27
2022-11-19T05:41:52.083Z,1.95
2022-11-19T05:44:43.504Z,2.52
2022-11-19T05:47:34.993Z,2.37
2022-11-19T05:50:26.812Z,2.70
2022-11-19T05:53:18.047Z,5.30
2022-11-19T05:56:10.139Z,6.62
2022-11-19T05:59:01.432Z,5.85
2022-11-19T06:01:52.554Z,4.85
2022-11-19T06:04:47.095Z,3.65
2022-11-19T06:07:38.546Z,2.95
2022-11-19T06:10:29.770Z,2.72
2022-11-19T06:13:21.087Z,3.22
2022-11-19T06:16:12.610Z,2.52
2022-11-19T06:19:04.411Z,2.50
2022-11-19T06:21:56.092Z,2.70
2022-11-19T06:24:47.430Z,2.50
2022-11-19T06:27:39.021Z,2.65
2022-11-19T06:30:30.472Z,2.60
2022-11-19T06:33:22.049Z,2.45
2022-11-19T06:36:13.832Z,2.40
2022-11-19T06:39:05.864Z,2.58
2022-11-19T06:41:59.977Z,2.70
2022-11-19T06:44:51.254Z,2.22
2022-11-19T06:47:43.880Z,2.70
2022-11-19T06:50:35.022Z,2.60
2022-11-19T06:53:26.676Z,2.27
2022-11-19T06:56:18.359Z,3.50
2022-11-19T06:59:10.100Z,2.42
2022-11-19T07:02:01.648Z,2.47
2022-11-19T07:04:53.331Z,2.12
2022-11-19T07:07:45.844Z,2.20
2022-11-19T07:10:37.742Z,2.30
2022-11-19T07:16:39.055Z,2.10
2022-11-19T07:19:30.386Z,2.10
2022-11-19T07:22:21.658Z,2.40
2022-11-19T07:25:13.712Z,2.37
2022-11-19T07:28:05.261Z,2.37
2022-11-19T07:30:57.954Z,2.22
2022-11-19T07:33:49.537Z,2.37
2022-11-19T07:36:41.401Z,2.42
2022-11-19T07:39:32.813Z,2.42
2022-11-19T07:42:42.218Z,2.25
2022-11-19T07:45:33.690Z,2.40
2022-11-19T07:48:25.237Z,2.60
2022-11-19T07:51:16.721Z,2.80
2022-11-19T07:54:09.338Z,2.35
2022-11-19T07:57:00.993Z,3.17
2022-11-19T07:59:52.123Z,2.42
2022-11-19T08:02:43.693Z,2.50
2022-11-19T08:05:35.267Z,2.10
2022-11-19T08:08:26.621Z,2.00
2022-11-19T08:11:19.563Z,2.60
2022-11-19T08:14:12.844Z,2.25
2022-11-19T08:17:21.870Z,2.33
2022-11-19T08:20:15.850Z,2.67
2022-11-19T08:23:07.458Z,2.40
2022-11-19T08:26:00.764Z,2.25
2022-11-19T08:28:55.042Z,2.55
2022-11-19T08:31:48.117Z,2.47
2022-11-19T08:34:39.668Z,2.10
2022-11-19T08:37:31.202Z,2.45
2022-11-19T08:40:22.655Z,2.72
2022-11-19T08:43:13.855Z,2.60
2022-11-19T08:46:06.324Z,2.90
2022-11-19T08:48:57.693Z,2.45
2022-11-19T08:51:49.097Z,2.75
2022-11-19T08:54:40.508Z,2.75
2022-11-19T08:57:31.842Z,2.70
2022-11-19T09:00:25.025Z,2.98
2022-11-19T09:03:16.189Z,4.47
2022-11-19T09:06:08.537Z,3.70
2022-11-19T09:08:59.679Z,3.75
2022-11-19T09:11:51.099Z,3.15
2022-11-19T09:14:42.169Z,3.12
2022-11-19T09:17:33.738Z,2.87
2022-11-19T09:20:26.329Z,2.72
2022-11-19T09:23:20.818Z,4.28
2022-11-19T09:26:17.940Z,3.75
2022-11-19T09:29:12.544Z,3.02
2022-11-19T09:32:08.181Z,2.77
2022-11-19T09:35:01.860Z,3.12
2022-11-19T09:38:00.055Z,2.85
2022-11-19T09:40:54.800Z,2.85
2022-11-19T09:46:30.995Z,2.60
2022-11-19T09:49:25.860Z,2.98
2022-11-19T09:52:20.351Z,2.67
2022-11-19T09:55:18.165Z,2.70
2022-11-19T09:58:13.817Z,2.62
2022-11-19T10:01:05.772Z,4.80
2022-11-19T10:03:57.503Z,2.70
2022-11-19T10:06:51.822Z,3.00
2022-11-19T10:09:57.286Z,2.90
2022-11-19T10:13:01.820Z,2.80
2022-11-19T10:15:59.421Z,2.60
2022-11-19T10:18:54.898Z,3.00
2022-11-19T10:21:49.013Z,3.00
2022-11-19T10:24:43.872Z,2.25
2022-11-19T10:27:38.760Z,2.62
2022-11-19T10:30:32.515Z,3.17
2022-11-19T10:33:28.145Z,2.90
2022-11-19T10:36:23.108Z,3.45
2022-11-19T10:39:20.448Z,3.08
2022-11-19T10:42:17.936Z,2.80
2022-11-19T10:45:13.680Z,2.65
2022-11-19T10:48:09.599Z,2.65
2022-11-19T10:51:02.258Z,2.72
2022-11-19T10:53:54.892Z,2.80
2022-11-19T10:56:46.376Z,2.60
2022-11-19T10:59:40.222Z,2.60
2022-11-19T11:02:36.577Z,2.62
2022-11-19T11:05:27.544Z,2.80
2022-11-19T11:08:18.912Z,2.50
2022-11-19T11:11:10.925Z,2.67
2022-11-19T11:14:30.407Z,2.58
2022-11-19T11:17:25.525Z,2.70
2022-11-19T11:20:28.591Z,2.47
2022-11-19T11:23:22.237Z,1.75
2022-11-19T11:26:15.815Z,2.35
2022-11-19T11:29:09.620Z,1.57
2022-11-19T11:32:01.712Z,1.30
2022-11-19T11:34:54.232Z,2.30
2022-11-19T11:37:45.745Z,1.50
2022-11-19T11:40:37.100Z,1.57
2022-11-19T11:43:30.203Z,1.75
2022-11-19T11:46:21.720Z,1.98
2022-11-19T11:49:25.420Z,1.20
2022-11-19T11:52:23.200Z,0.95
2022-11-19T11:55:22.334Z,1.00
2022-11-19T11:58:30.845Z,1.32
2022-11-19T12:01:25.050Z,1.10
2022-11-19T12:04:16.604Z,0.98
2022-11-19T12:07:14.586Z,1.40
2022-11-19T12:10:13.818Z,1.40
2022-11-19T12:13:35.991Z,1.35
2022-11-19T12:19:58.233Z,1.57
2022-11-19T12:22:57.962Z,1.12
2022-11-19T12:25:53.868Z,1.20
2022-11-19T12:28:53.737Z,1.30
2022-11-19T12:31:52.564Z,1.10
2022-11-19T12:35:00.998Z,1.40
2022-11-19T12:38:12.788Z,1.40
2022-11-19T12:41:15.407Z,1.20
2022-11-19T12:44:11.134Z,1.10
2022-11-19T12:49:56.244Z,1.62
2022-11-19T12:52:56.315Z,1.20
2022-11-19T12:55:53.897Z,1.30
2022-11-19T12:58:48.141Z,1.22
2022-11-19T13:01:42.131Z,1.20
2022-11-19T13:04:37.199Z,1.20
2022-11-19T13:07:31.931Z,1.37
2022-11-19T13:10:27.425Z,1.27
2022-11-19T13:13:22.434Z,1.40
2022-11-19T13:16:16.500Z,1.20
2022-11-19T13:19:18.411Z,1.22
2022-11-19T13:22:14.758Z,1.10
2022-11-19T13:25:09.631Z,1.40
2022-11-19T13:28:04.032Z,1.17
2022-11-19T13:30:58.100Z,1.00
2022-11-19T13:33:52.399Z,1.00
2022-11-19T13:36:46.709Z,0.88
2022-11-19T13:39:40.966Z,1.32
2022-11-19T13:45:17.783Z,1.25
2022-11-19T13:48:13.288Z,1.10
2022-11-19T13:51:09.967Z,1.10
2022-11-19T13:54:03.776Z,1.10
2022-11-19T13:56:58.482Z,1.22
2022-11-19T13:59:51.093Z,1.12
2022-11-19T14:03:05.157Z,0.98
2022-11-19T14:06:24.953Z,0.98
2022-11-19T14:09:26.732Z,0.70
2022-11-19T14:12:44.778Z,0.90
2022-11-19T14:16:09.700Z,0.90
2022-11-19T14:19:29.688Z,0.80
2022-11-19T14:22:56.450Z,0.75
2022-11-19T14:26:07.428Z,0.90
2022-11-19T14:28:58.752Z,0.72
2022-11-19T14:32:21.114Z,1.02
2022-11-19T14:35:50.127Z,0.82
2022-11-19T14:38:49.768Z,1.10
2022-11-19T14:41:45.387Z,0.80
2022-11-19T14:44:37.707Z,0.90
2022-11-19T14:47:36.232Z,0.80
2022-11-19T14:50:30.534Z,0.60
2022-11-19T14:53:22.276Z,0.50
2022-11-19T14:56:15.794Z,0.53
2022-11-19T14:59:20.645Z,0.40
2022-11-19T15:02:22.038Z,0.40
2022-11-19T15:05:21.447Z,0.60
2022-11-19T15:08:35.937Z,0.40
2022-11-19T15:11:50.588Z,0.35
2022-11-19T15:14:45.244Z,0.57
2022-11-19T15:17:36.802Z,0.50
2022-11-19T15:20:31.906Z,0.50
2022-11-19T15:23:26.083Z,0.80
2022-11-19T15:26:21.209Z,0.40
2022-11-19T15:32:04.178Z,0.50
2022-11-19T15:35:15.604Z,0.65
2022-11-19T15:38:15.438Z,0.78
2022-11-19T15:41:06.770Z,0.90
2022-11-19T15:44:00.797Z,0.60
2022-11-19T15:46:54.993Z,0.55
2022-11-19T15:49:48.226Z,0.50
2022-11-19T15:55:22.608Z,0.68
2022-11-19T15:58:17.163Z,0.70
2022-11-19T16:01:10.626Z,0.80
2022-11-19T16:04:07.673Z,0.70
2022-11-19T16:06:59.547Z,0.80
2022-11-19T16:13:02.665Z,0.50
2022-11-19T16:16:13.820Z,0.57
2022-11-19T16:19:06.989Z,0.82
2022-11-19T16:22:01.635Z,0.72
2022-11-19T16:25:03.676Z,0.70
2022-11-19T16:27:57.651Z,0.68
2022-11-19T16:30:59.487Z,0.50
2022-11-19T16:33:55.875Z,0.55
2022-11-19T16:36:50.221Z,0.70
2022-11-19T16:39:42.602Z,0.98
2022-11-19T16:42:33.895Z,0.72
2022-11-19T16:45:28.452Z,0.90
2022-11-19T16:48:55.197Z,0.50
2022-11-19T16:51:55.028Z,0.70
2022-11-19T16:54:48.794Z,0.78
2022-11-19T16:57:41.712Z,0.60
2022-11-19T17:00:35.879Z,0.70
2022-11-19T17:03:39.396Z,0.70
2022-11-19T17:06:33.379Z,0.70
2022-11-19T17:09:41.035Z,0.33
2022-11-19T17:12:35.245Z,0.60
2022-11-19T17:15:39.027Z,0.60
2022-11-19T17:18:33.489Z,0.53
2022-11-19T17:21:28.598Z,0.60
2022-11-19T17:24:25.151Z,0.45
2022-11-19T17:27:17.006Z,0.47
2022-11-19T17:30:11.455Z,0.50
2022-11-19T17:33:05.171Z,0.60
2022-11-19T17:35:56.976Z,0.40
2022-11-19T17:38:48.582Z,0.60
2022-11-19T17:41:58.574Z,0.60
2022-11-19T17:44:49.748Z,0.45
2022-11-19T17:47:41.525Z,0.68
2022-11-19T17:50:33.379Z,0.95
2022-11-19T17:53:25.300Z,0.80
2022-11-19T17:58:59.753Z,0.60
2022-11-19T18:01:50.768Z,0.80
2022-11-19T18:04:45.640Z,1.10
2022-11-19T18:07:39.104Z,0.80
2022-11-19T18:10:30.796Z,0.62
2022-11-19T18:13:24.979Z,0.82
2022-11-19T18:16:18.238Z,1.25
2022-11-19T18:19:14.537Z,0.90
2022-11-19T18:22:05.973Z,1.00
2022-11-19T18:24:57.388Z,1.00
2022-11-19T18:27:50.264Z,1.05
2022-11-19T18:30:41.801Z,1.10
2022-11-19T18:33:35.575Z,0.88
2022-11-19T18:36:27.691Z,1.47
2022-11-19T18:39:20.047Z,1.00
2022-11-19T18:42:13.581Z,1.22
2022-11-19T18:45:06.161Z,0.90
2022-11-19T18:47:57.876Z,0.72
2022-11-19T18:50:49.392Z,0.88
2022-11-19T18:53:41.178Z,1.30
2022-11-19T18:56:32.674Z,0.80
2022-11-19T18:59:25.566Z,0.90
2022-11-19T19:02:17.274Z,1.50
2022-11-19T19:05:10.147Z,0.98
2022-11-19T19:08:02.062Z,0.90
2022-11-19T19:10:55.471Z,1.17
2022-11-19T19:13:47.523Z,1.50
2022-11-19T19:19:20.988Z,1.32
2022-11-19T19:24:56.706Z,1.32
2022-11-19T19:27:43.897Z,1.22
2022-11-19T19:30:35.077Z,1.22
2022-11-19T19:33:26.487Z,1.30
2022-11-19T19:38:58.428Z,1.27
2022-11-19T19:44:28.026Z,1.25
2022-11-19T19:47:19.104Z,1.17
2022-11-19T19:50:12.421Z,1.20
2022-11-19T19:53:03.579Z,1.07
2022-11-19T19:56:03.494Z,1.30
2022-11-19T19:58:55.187Z,1.35
2022-11-19T20:04:26.361Z,1.25
2022-11-19T20:09:57.489Z,0.93
2022-11-19T20:13:49.263Z,1.52
2022-11-19T20:22:33.771Z,1.30
2022-11-19T20:25:25.257Z,1.00
2022-11-19T20:28:17.033Z,1.20
2022-11-19T20:31:10.801Z,0.90
2022-11-19T20:34:03.542Z,0.62
2022-11-19T20:36:54.765Z,1.25
2022-11-19T20:39:46.145Z,1.12
2022-11-19T20:42:54.995Z,1.00
2022-11-19T20:45:46.341Z,0.85
2022-11-19T20:48:37.867Z,1.22
2022-11-19T20:54:09.036Z,0.85
2022-11-19T20:59:46.657Z,0.72
2022-11-19T21:02:37.754Z,1.20
2022-11-19T21:05:29.049Z,1.07
2022-11-19T21:08:20.432Z,0.98
2022-11-19T21:13:57.322Z,1.32
2022-11-19T21:19:27.238Z,1.17
2022-11-19T21:22:19.018Z,1.10
2022-11-19T21:25:12.593Z,1.82
2022-11-19T21:30:47.758Z,1.30
2022-11-19T21:33:38.854Z,1.20
2022-11-19T21:36:30.212Z,1.10
2022-11-19T21:39:22.979Z,1.00
2022-11-19T21:42:14.669Z,1.32
2022-11-19T21:45:08.426Z,1.57
2022-11-19T21:50:44.771Z,1.37
2022-11-19T21:53:36.707Z,1.22
2022-11-19T21:56:33.800Z,1.35
2022-11-19T21:59:22.718Z,1.50
2022-11-19T22:04:53.751Z,1.00
2022-11-19T22:07:46.372Z,1.05
2022-11-19T22:10:42.779Z,1.35
2022-11-19T22:13:31.333Z,1.27
2022-11-19T22:19:01.795Z,1.20
2022-11-19T22:21:53.245Z,1.07
2022-11-19T22:24:47.605Z,1.20
2022-11-19T22:27:39.159Z,1.45
2022-11-19T22:30:30.664Z,0.93
2022-11-19T22:36:06.466Z,1.02
2022-11-19T22:38:54.558Z,0.80
2022-11-19T22:44:27.100Z,1.30
2022-11-19T22:47:18.453Z,1.20
2022-11-19T22:50:11.079Z,1.20
2022-11-19T22:53:02.128Z,1.00
2022-11-19T22:55:54.815Z,1.32
2022-11-19T22:58:45.967Z,1.20
2022-11-19T23:04:17.216Z,1.05
2022-11-19T23:09:52.511Z,1.20
2022-11-19T23:13:01.428Z,1.25
2022-11-19T23:16:04.707Z,1.40
2022-11-19T23:18:56.205Z,1.10
2022-11-19T23:21:47.957Z,1.07
2022-11-19T23:24:39.284Z,1.07
2022-11-19T23:27:30.709Z,1.37
2022-11-19T23:30:22.080Z,1.30
2022-11-19T23:33:13.585Z,0.93
2022-11-19T23:36:07.622Z,1.47
2022-11-19T23:38:59.954Z,0.93
2022-11-19T23:44:34.173Z,1.10
2022-11-19T23:47:25.320Z,1.30
2022-11-19T23:50:17.047Z,1.32
2022-11-19T23:53:08.800Z,1.35
2022-11-19T23:56:00.696Z,1.10
2022-11-19T23:58:52.356Z,1.27
